createdAt,value
2019-04-04T00:01:36.136Z,70.64
2019-04-04T00:04:05.700Z,70.29
2019-04-04T00:06:35.231Z,69.42
2019-04-04T00:09:08.028Z,69.20
2019-04-04T00:11:37.577Z,69.53
2019-04-04T00:14:07.111Z,69.51
2019-04-04T00:16:36.641Z,69.27
2019-04-04T00:19:06.169Z,68.62
2019-04-04T00:21:35.688Z,67.80
2019-04-04T00:24:07.139Z,67.75
2019-04-04T00:26:36.568Z,68.37
2019-04-04T00:29:06.819Z,69.03
2019-04-04T00:31:36.363Z,68.95
2019-04-04T00:34:06.935Z,69.32
2019-04-04T00:36:36.470Z,69.53
2019-04-04T00:39:09.571Z,69.60
2019-04-04T00:41:39.470Z,69.62
2019-04-04T00:44:09.020Z,69.73
2019-04-04T00:46:38.580Z,69.87
2019-04-04T00:49:08.090Z,69.39
2019-04-04T00:51:39.071Z,69.14
2019-04-04T00:54:08.891Z,69.29
2019-04-04T00:56:38.410Z,69.29
2019-04-04T00:59:09.040Z,68.80
2019-04-04T01:01:38.641Z,68.64
2019-04-04T01:04:08.954Z,68.56
2019-04-04T01:06:38.474Z,69.10
2019-04-04T01:09:11.803Z,69.30
2019-04-04T01:11:39.309Z,68.90
2019-04-04T01:14:08.840Z,67.84
2019-04-04T01:16:38.450Z,67.93
2019-04-04T01:19:09.584Z,67.92
2019-04-04T01:21:39.243Z,67.54
2019-04-04T01:24:08.782Z,67.86
2019-04-04T01:26:38.339Z,67.89
2019-04-04T01:29:10.246Z,67.43
2019-04-04T01:31:39.147Z,67.17
2019-04-04T01:34:08.674Z,67.71
2019-04-04T01:36:38.185Z,67.83
2019-04-04T01:39:08.098Z,67.25
2019-04-04T01:41:37.657Z,67.18
2019-04-04T01:44:08.994Z,67.21
2019-04-04T01:46:38.448Z,66.93
2019-04-04T01:49:08.049Z,66.55
2019-04-04T01:51:37.568Z,66.18
2019-04-04T01:54:07.194Z,66.29
2019-04-04T01:56:37.712Z,66.45
2019-04-04T01:59:07.333Z,66.58
2019-04-04T02:01:36.912Z,66.25
2019-04-04T02:04:06.522Z,66.31
2019-04-04T02:06:36.054Z,66.43
2019-04-04T02:09:07.154Z,66.00
2019-04-04T02:11:37.634Z,65.11
2019-04-04T02:14:07.725Z,64.89
2019-04-04T02:16:37.269Z,65.53
2019-04-04T02:19:06.802Z,65.36
2019-04-04T02:21:36.421Z,65.80
2019-04-04T02:24:06.032Z,65.68
2019-04-04T02:26:36.147Z,65.21
2019-04-04T02:29:06.366Z,65.13
2019-04-04T02:31:39.636Z,65.37
2019-04-04T02:34:09.181Z,64.95
2019-04-04T02:36:38.717Z,66.00
2019-04-04T02:39:10.615Z,66.05
2019-04-04T02:41:40.148Z,66.02
2019-04-04T02:44:09.651Z,66.13
2019-04-04T02:46:44.299Z,66.20
2019-04-04T02:49:10.589Z,66.54
2019-04-04T02:51:41.337Z,66.47
2019-04-04T02:54:11.234Z,65.72
2019-04-04T02:56:40.759Z,65.61
2019-04-04T02:59:10.302Z,66.21
2019-04-04T03:01:39.994Z,66.30
2019-04-04T03:04:13.568Z,66.06
2019-04-04T03:06:41.815Z,65.67
2019-04-04T03:09:11.355Z,66.07
2019-04-04T03:11:40.891Z,66.22
2019-04-04T03:14:10.489Z,66.11
2019-04-04T03:16:40.045Z,65.63
2019-04-04T03:19:10.897Z,66.03
2019-04-04T03:21:40.819Z,66.59
2019-04-04T03:24:10.352Z,66.95
2019-04-04T03:26:39.905Z,66.47
2019-04-04T03:29:10.597Z,66.15
2019-04-04T03:31:40.470Z,65.92
2019-04-04T03:34:12.426Z,66.19
2019-04-04T03:36:41.359Z,66.67
2019-04-04T03:39:10.898Z,66.32
2019-04-04T03:41:40.470Z,66.40
2019-04-04T03:44:09.994Z,65.93
2019-04-04T03:46:39.607Z,65.71
2019-04-04T03:49:09.141Z,65.92
2019-04-04T03:51:38.656Z,65.79
2019-04-04T03:54:22.200Z,65.59
2019-04-04T03:56:50.066Z,65.06
2019-04-04T03:59:19.606Z,64.84
2019-04-04T04:01:49.129Z,64.58
2019-04-04T04:04:18.662Z,65.18
2019-04-04T04:06:49.127Z,65.79
2019-04-04T04:09:18.645Z,65.43
2019-04-04T04:11:48.187Z,65.19
2019-04-04T04:14:21.666Z,65.39
2019-04-04T04:16:49.062Z,65.29
2019-04-04T04:19:18.587Z,64.85
2019-04-04T04:21:48.119Z,65.48
2019-04-04T04:24:17.626Z,66.56
2019-04-04T04:26:47.166Z,66.31
2019-04-04T04:29:16.753Z,65.94
2019-04-04T04:31:49.282Z,65.83
2019-04-04T04:34:17.515Z,66.22
2019-04-04T04:36:48.061Z,66.17
2019-04-04T04:39:18.112Z,65.99
2019-04-04T04:41:47.644Z,65.93
2019-04-04T04:44:17.165Z,65.65
2019-04-04T04:46:49.720Z,65.49
2019-04-04T04:49:17.932Z,65.54
2019-04-04T04:51:47.468Z,65.43
2019-04-04T04:54:16.988Z,65.65
2019-04-04T04:56:46.503Z,66.00
2019-04-04T04:59:16.117Z,66.16
2019-04-04T05:01:45.630Z,66.52
2019-04-04T05:04:15.169Z,66.47
2019-04-04T05:06:44.698Z,66.69
2019-04-04T05:09:14.895Z,66.92
2019-04-04T05:11:44.478Z,67.39
2019-04-04T05:14:14.021Z,66.38
2019-04-04T05:16:43.666Z,66.50
2019-04-04T05:19:13.190Z,66.99
2019-04-04T05:21:42.758Z,66.83
2019-04-04T05:24:12.300Z,66.84
2019-04-04T05:26:41.842Z,67.02
2019-04-04T05:29:13.992Z,67.21
2019-04-04T05:31:42.644Z,67.14
2019-04-04T05:34:12.205Z,67.14
2019-04-04T05:36:41.816Z,66.65
2019-04-04T05:39:11.342Z,66.57
2019-04-04T05:41:40.910Z,66.14
2019-04-04T05:44:10.500Z,66.05
2019-04-04T05:46:40.034Z,66.29
2019-04-04T05:49:09.579Z,66.84
2019-04-04T05:51:39.103Z,66.92
2019-04-04T05:54:08.642Z,66.40
2019-04-04T05:56:39.150Z,66.43
2019-04-04T05:59:08.781Z,66.51
2019-04-04T06:01:38.349Z,66.26
2019-04-04T06:04:07.850Z,66.19
2019-04-04T06:06:37.690Z,65.84
2019-04-04T06:09:08.211Z,65.56
2019-04-04T06:11:37.737Z,66.46
2019-04-04T06:14:07.279Z,67.06
2019-04-04T06:16:36.825Z,67.00
2019-04-04T06:19:06.453Z,67.20
2019-04-04T06:21:35.999Z,66.88
2019-04-04T06:24:05.590Z,66.76
2019-04-04T06:26:36.061Z,66.34
2019-04-04T06:29:06.406Z,66.03
2019-04-04T06:31:35.924Z,66.47
2019-04-04T06:34:06.028Z,66.99
2019-04-04T06:36:36.858Z,66.87
2019-04-04T06:39:07.863Z,67.15
2019-04-04T06:41:37.741Z,67.30
2019-04-04T06:44:07.270Z,66.83
2019-04-04T06:46:36.782Z,66.63
2019-04-04T06:49:06.458Z,66.89
2019-04-04T06:51:35.959Z,66.97
2019-04-04T06:54:05.604Z,66.76
2019-04-04T06:56:35.106Z,67.48
2019-04-04T06:59:04.664Z,67.73
2019-04-04T07:01:34.260Z,67.61
2019-04-04T07:04:03.783Z,67.95
2019-04-04T07:06:33.293Z,67.62
2019-04-04T07:09:03.796Z,67.46
2019-04-04T07:11:35.217Z,67.43
2019-04-04T07:14:04.738Z,67.29
2019-04-04T07:16:36.891Z,67.23
2019-04-04T07:19:07.834Z,66.94
2019-04-04T07:21:36.788Z,66.75
2019-04-04T07:24:06.338Z,66.50
2019-04-04T07:26:35.845Z,66.13
2019-04-04T07:29:05.478Z,65.73
2019-04-04T07:31:37.998Z,65.65
2019-04-04T07:34:06.233Z,65.38
2019-04-04T07:36:35.739Z,65.49
2019-04-04T07:39:06.546Z,66.66
2019-04-04T07:41:38.015Z,66.38
2019-04-04T07:44:08.322Z,66.53
2019-04-04T07:46:40.786Z,66.67
2019-04-04T07:49:10.158Z,67.45
2019-04-04T07:51:39.673Z,67.86
2019-04-04T07:54:09.192Z,67.14
2019-04-04T07:56:38.736Z,67.22
2019-04-04T07:59:08.458Z,66.66
2019-04-04T08:01:45.691Z,66.50
2019-04-04T08:04:09.228Z,66.32
2019-04-04T08:06:38.757Z,66.37
2019-04-04T08:09:08.675Z,66.51
2019-04-04T08:11:38.226Z,67.06
2019-04-04T08:14:07.749Z,66.73
2019-04-04T08:16:37.285Z,66.31
2019-04-04T08:19:06.891Z,66.62
2019-04-04T08:21:36.401Z,66.99
2019-04-04T08:24:05.964Z,66.96
2019-04-04T08:26:35.499Z,67.12
2019-04-04T08:29:05.093Z,67.30
2019-04-04T08:31:34.612Z,67.38
2019-04-04T08:34:04.521Z,67.43
2019-04-04T08:36:35.794Z,66.98
2019-04-04T08:39:09.155Z,67.29
2019-04-04T08:41:38.716Z,67.53
2019-04-04T08:44:08.291Z,67.64
2019-04-04T08:46:37.826Z,67.28
2019-04-04T08:49:07.366Z,67.28
2019-04-04T08:51:36.905Z,67.81
2019-04-04T08:54:06.536Z,67.66
2019-04-04T08:56:36.077Z,67.62
2019-04-04T08:59:05.797Z,66.58
2019-04-04T09:01:35.308Z,66.52
2019-04-04T09:04:04.938Z,65.80
2019-04-04T09:06:34.480Z,65.95
2019-04-04T09:09:06.474Z,65.75
2019-04-04T09:11:36.071Z,65.49
2019-04-04T09:14:05.800Z,65.30
2019-04-04T09:16:35.330Z,65.46
2019-04-04T09:19:04.854Z,65.47
2019-04-04T09:21:34.377Z,65.33
2019-04-04T09:24:03.895Z,65.26
2019-04-04T09:26:33.509Z,64.76
2019-04-04T09:29:03.062Z,63.25
2019-04-04T09:31:32.593Z,64.21
2019-04-04T09:34:02.174Z,64.28
2019-04-04T09:36:31.709Z,64.85
2019-04-04T09:39:01.244Z,64.76
2019-04-04T09:41:31.344Z,64.55
2019-04-04T09:44:00.883Z,64.12
2019-04-04T09:46:30.387Z,63.60
2019-04-04T09:48:59.926Z,63.57
2019-04-04T09:51:29.552Z,63.37
2019-04-04T09:53:59.072Z,63.16
2019-04-04T09:56:28.674Z,62.90
2019-04-04T09:58:58.360Z,63.37
2019-04-04T10:01:27.977Z,63.00
2019-04-04T10:03:57.490Z,63.16
2019-04-04T10:06:27.012Z,62.73
2019-04-04T10:08:56.558Z,62.56
2019-04-04T10:11:26.085Z,62.10
2019-04-04T10:13:55.625Z,63.42
2019-04-04T10:16:25.175Z,62.38
2019-04-04T10:18:54.808Z,63.03
2019-04-04T10:21:24.365Z,62.63
2019-04-04T10:23:53.926Z,62.32
2019-04-04T10:26:23.452Z,62.56
2019-04-04T10:28:53.603Z,62.52
2019-04-04T10:31:23.146Z,63.57
2019-04-04T10:33:52.654Z,62.52
2019-04-04T10:36:22.178Z,63.11
2019-04-04T10:38:51.691Z,61.35
2019-04-04T10:41:21.246Z,62.80
2019-04-04T10:43:50.860Z,62.54
2019-04-04T10:46:20.420Z,61.88
2019-04-04T10:48:49.970Z,63.00
2019-04-04T10:51:19.519Z,63.10
2019-04-04T10:53:49.121Z,64.06
2019-04-04T10:56:18.682Z,64.37
2019-04-04T10:58:48.227Z,63.74
2019-04-04T11:01:17.781Z,64.49
2019-04-04T11:03:47.290Z,63.41
2019-04-04T11:06:16.821Z,64.62
2019-04-04T11:08:46.345Z,63.67
2019-04-04T11:11:15.901Z,63.96
2019-04-04T11:13:45.424Z,64.38
2019-04-04T11:16:14.966Z,63.45
2019-04-04T11:18:44.478Z,64.14
2019-04-04T11:21:14.020Z,63.93
2019-04-04T11:23:43.550Z,64.44
2019-04-04T11:26:13.098Z,64.97
2019-04-04T11:28:42.630Z,64.06
2019-04-04T11:31:12.167Z,64.15
2019-04-04T11:33:41.701Z,64.30
2019-04-04T11:36:11.239Z,64.91
2019-04-04T11:38:40.762Z,65.02
2019-04-04T11:41:10.293Z,64.82
2019-04-04T11:43:39.826Z,64.20
2019-04-04T11:46:09.363Z,64.51
2019-04-04T11:48:38.928Z,64.10
2019-04-04T11:51:08.496Z,64.03
2019-04-04T11:53:38.123Z,63.61
2019-04-04T11:56:07.667Z,63.22
2019-04-04T11:58:37.204Z,63.95
2019-04-04T12:01:08.857Z,64.64
2019-04-04T12:03:38.407Z,64.81
2019-04-04T12:06:08.013Z,65.20
2019-04-04T12:08:37.603Z,64.46
2019-04-04T12:11:07.131Z,64.76
2019-04-04T12:13:36.661Z,65.20
2019-04-04T12:16:06.265Z,65.39
2019-04-04T12:18:35.824Z,65.51
2019-04-04T12:21:05.404Z,66.06
2019-04-04T12:23:34.967Z,66.56
2019-04-04T12:26:04.656Z,66.21
2019-04-04T12:28:34.173Z,66.48
2019-04-04T12:31:04.483Z,66.69
2019-04-04T12:33:33.998Z,66.25
2019-04-04T12:36:03.593Z,65.77
2019-04-04T12:38:33.208Z,65.00
2019-04-04T12:41:02.736Z,65.17
2019-04-04T12:43:32.300Z,64.94
2019-04-04T12:46:01.863Z,64.88
2019-04-04T12:48:31.414Z,64.86
2019-04-04T12:51:00.964Z,64.98
2019-04-04T12:53:32.717Z,64.49
2019-04-04T12:56:01.722Z,64.57
2019-04-04T12:58:32.253Z,64.76
2019-04-04T13:01:01.769Z,64.67
2019-04-04T13:03:31.320Z,63.89
2019-04-04T13:06:00.866Z,64.34
2019-04-04T13:08:30.759Z,64.33
2019-04-04T13:11:00.410Z,64.49
2019-04-04T13:13:31.016Z,64.69
2019-04-04T13:16:00.550Z,64.35
2019-04-04T13:18:30.155Z,63.87
2019-04-04T13:20:59.768Z,64.14
2019-04-04T13:23:30.351Z,64.71
2019-04-04T13:25:59.870Z,64.78
2019-04-04T13:28:29.408Z,64.95
2019-04-04T13:30:58.975Z,65.20
2019-04-04T13:33:28.500Z,65.25
2019-04-04T13:35:58.020Z,65.48
2019-04-04T13:38:27.738Z,65.43
2019-04-04T13:40:57.261Z,65.35
2019-04-04T13:43:26.802Z,65.76
2019-04-04T13:45:56.339Z,66.01
2019-04-04T13:48:25.872Z,66.23
2019-04-04T13:50:55.483Z,66.05
2019-04-04T13:53:26.247Z,65.98
2019-04-04T13:55:59.132Z,65.84
2019-04-04T13:58:28.034Z,66.03
2019-04-04T14:00:57.694Z,65.78
2019-04-04T14:03:27.257Z,65.67
2019-04-04T14:05:56.777Z,65.37
2019-04-04T14:08:26.329Z,65.24
2019-04-04T14:10:58.377Z,65.26
2019-04-04T14:13:27.100Z,64.74
2019-04-04T14:15:56.621Z,65.22
2019-04-04T14:18:39.100Z,65.40
2019-04-04T14:21:03.716Z,65.54
2019-04-04T14:23:28.800Z,65.23
2019-04-04T14:25:59.976Z,65.52
2019-04-04T14:28:29.568Z,65.44
2019-04-04T14:30:59.175Z,65.21
2019-04-04T14:33:28.719Z,64.45
2019-04-04T14:35:58.404Z,65.20
2019-04-04T14:38:27.919Z,64.41
2019-04-04T14:41:10.221Z,64.44
2019-04-04T14:43:29.968Z,63.97
2019-04-04T14:45:59.946Z,64.14
2019-04-04T14:48:29.506Z,63.65
2019-04-04T14:50:59.025Z,63.40
2019-04-04T14:53:28.565Z,63.75
2019-04-04T14:55:58.085Z,63.62
2019-04-04T14:58:30.575Z,63.93
2019-04-04T15:01:00.137Z,64.00
2019-04-04T15:03:29.663Z,63.95
2019-04-04T15:05:59.181Z,63.81
2019-04-04T15:08:28.745Z,63.37
2019-04-04T15:10:58.264Z,64.03
2019-04-04T15:13:27.810Z,64.55
2019-04-04T15:16:16.359Z,65.40
2019-04-04T15:18:46.043Z,65.00
2019-04-04T15:21:15.665Z,65.27
2019-04-04T15:23:45.177Z,65.78
2019-04-04T15:26:14.695Z,65.08
2019-04-04T15:28:44.236Z,64.97
2019-04-04T15:31:13.753Z,64.48
2019-04-04T15:33:43.298Z,64.42
2019-04-04T15:36:12.825Z,64.64
2019-04-04T15:38:42.390Z,64.19
2019-04-04T15:41:11.902Z,64.10
2019-04-04T15:43:41.445Z,63.54
2019-04-04T15:46:11.640Z,63.84
2019-04-04T15:48:41.190Z,63.93
2019-04-04T15:51:10.720Z,63.74
2019-04-04T15:53:40.332Z,63.22
2019-04-04T15:56:09.877Z,63.47
2019-04-04T15:58:39.897Z,63.62
2019-04-04T16:01:09.474Z,63.78
2019-04-04T16:03:40.100Z,63.58
2019-04-04T16:06:09.708Z,63.80
2019-04-04T16:08:39.247Z,63.62
2019-04-04T16:11:08.798Z,63.78
2019-04-04T16:13:38.364Z,63.72
2019-04-04T16:16:08.075Z,63.93
2019-04-04T16:18:37.601Z,63.96
2019-04-04T16:21:07.193Z,63.49
2019-04-04T16:23:36.733Z,63.76
2019-04-04T16:26:06.337Z,63.75
2019-04-04T16:28:35.883Z,63.90
2019-04-04T16:31:05.483Z,64.98
2019-04-04T16:33:35.010Z,66.15
2019-04-04T16:36:05.556Z,66.71
2019-04-04T16:38:35.367Z,67.39
2019-04-04T16:41:04.990Z,68.05
2019-04-04T16:43:34.516Z,68.08
2019-04-04T16:46:04.117Z,67.79
2019-04-04T16:48:33.737Z,67.82
2019-04-04T16:51:03.271Z,67.94
2019-04-04T16:53:32.939Z,67.93
2019-04-04T16:56:02.450Z,68.00
2019-04-04T16:58:31.992Z,68.08
2019-04-04T17:01:01.538Z,68.03
2019-04-04T17:03:34.297Z,68.17
2019-04-04T17:06:03.387Z,68.31
2019-04-04T17:08:32.900Z,68.36
2019-04-04T17:11:02.814Z,68.04
2019-04-04T17:13:32.932Z,68.26
2019-04-04T17:16:02.493Z,68.18
2019-04-04T17:18:32.019Z,68.35
2019-04-04T17:21:01.992Z,68.54
2019-04-04T17:23:32.474Z,68.08
2019-04-04T17:26:02.021Z,68.19
2019-04-04T17:28:31.873Z,68.03
2019-04-04T17:31:01.462Z,68.00
2019-04-04T17:33:31.150Z,67.93
2019-04-04T17:36:00.775Z,67.77
2019-04-04T17:38:30.515Z,68.00
2019-04-04T17:41:00.154Z,67.91
2019-04-04T17:43:30.122Z,67.82
2019-04-04T17:45:59.953Z,67.75
2019-04-04T17:48:31.588Z,68.07
2019-04-04T17:51:00.936Z,68.09
2019-04-04T17:53:30.900Z,68.57
2019-04-04T17:56:00.843Z,68.74
2019-04-04T17:58:30.826Z,68.83
2019-04-04T18:01:01.022Z,68.90
2019-04-04T18:03:31.029Z,68.89
2019-04-04T18:06:00.570Z,68.96
2019-04-04T18:08:31.646Z,69.13
2019-04-04T18:11:01.168Z,69.13
2019-04-04T18:13:32.218Z,69.41
2019-04-04T18:16:01.909Z,69.46
2019-04-04T18:18:31.436Z,69.78
2019-04-04T18:21:00.954Z,69.80
2019-04-04T18:23:31.458Z,69.84
2019-04-04T18:26:01.969Z,69.72
2019-04-04T18:28:31.842Z,69.76
2019-04-04T18:31:01.478Z,70.12
2019-04-04T18:33:30.998Z,70.54
2019-04-04T18:36:00.532Z,70.40
2019-04-04T18:38:30.070Z,70.65
2019-04-04T18:40:59.619Z,70.85
2019-04-04T18:43:29.147Z,70.15
2019-04-04T18:45:58.694Z,70.07
2019-04-04T18:48:28.210Z,70.41
2019-04-04T18:50:57.766Z,70.51
2019-04-04T18:53:27.300Z,70.79
2019-04-04T18:55:56.842Z,70.73
2019-04-04T18:58:26.389Z,70.63
2019-04-04T19:00:55.934Z,70.36
2019-04-04T19:03:25.578Z,71.03
2019-04-04T19:05:55.176Z,71.36
2019-04-04T19:08:24.711Z,71.00
2019-04-04T19:10:54.301Z,71.05
2019-04-04T19:13:23.993Z,70.69
2019-04-04T19:15:53.518Z,70.61
2019-04-04T19:18:23.097Z,71.30
2019-04-04T19:20:52.645Z,71.22
2019-04-04T19:23:23.271Z,71.48
2019-04-04T19:25:52.919Z,71.44
2019-04-04T19:28:22.451Z,71.49
2019-04-04T19:30:52.031Z,71.18
2019-04-04T19:33:22.621Z,71.27
2019-04-04T19:35:52.160Z,71.30
2019-04-04T19:38:21.690Z,71.07
2019-04-04T19:40:51.245Z,70.96
2019-04-04T19:43:20.760Z,70.19
2019-04-04T19:45:50.315Z,70.14
2019-04-04T19:48:20.817Z,70.35
2019-04-04T19:50:51.075Z,70.96
2019-04-04T19:53:20.601Z,71.16
2019-04-04T19:55:50.119Z,70.66
2019-04-04T19:58:19.651Z,70.29
2019-04-04T20:00:50.375Z,70.74
2019-04-04T20:03:19.911Z,70.56
2019-04-04T20:05:49.491Z,70.65
2019-04-04T20:08:19.023Z,69.85
2019-04-04T20:10:48.574Z,69.76
2019-04-04T20:13:29.931Z,69.35
2019-04-04T20:15:49.372Z,69.02
2019-04-04T20:18:18.893Z,68.99
2019-04-04T20:20:48.491Z,69.61
2019-04-04T20:23:18.025Z,68.95
2019-04-04T20:25:47.634Z,69.43
2019-04-04T20:28:18.179Z,69.25
2019-04-04T20:30:47.690Z,69.36
2019-04-04T20:33:17.241Z,69.70
2019-04-04T20:35:46.942Z,69.61
2019-04-04T20:38:17.491Z,68.90
2019-04-04T20:40:47.000Z,69.39
2019-04-04T20:43:16.652Z,69.06
2019-04-04T20:45:46.216Z,69.27
2019-04-04T20:48:15.776Z,69.52
2019-04-04T20:50:45.303Z,69.02
2019-04-04T20:53:14.858Z,69.03
2019-04-04T20:55:44.435Z,69.11
2019-04-04T20:58:13.996Z,69.20
2019-04-04T21:00:43.575Z,69.36
2019-04-04T21:03:14.092Z,69.10
2019-04-04T21:05:43.626Z,68.79
2019-04-04T21:08:13.168Z,68.92
2019-04-04T21:10:42.683Z,69.37
2019-04-04T21:13:12.303Z,69.25
2019-04-04T21:15:42.823Z,69.03
2019-04-04T21:18:13.971Z,68.94
2019-04-04T21:20:43.767Z,68.93
2019-04-04T21:23:13.335Z,68.95
2019-04-04T21:25:42.896Z,69.08
2019-04-04T21:28:12.442Z,69.33
2019-04-04T21:30:42.226Z,69.00
2019-04-04T21:33:11.756Z,69.09
2019-04-04T21:35:41.269Z,69.04
2019-04-04T21:38:10.855Z,69.36
2019-04-04T21:40:40.375Z,69.47
2019-04-04T21:43:09.908Z,69.29
2019-04-04T21:45:39.539Z,69.58
2019-04-04T21:48:09.143Z,69.79
2019-04-04T21:50:38.654Z,69.66
2019-04-04T21:53:08.178Z,69.94
2019-04-04T21:55:37.692Z,69.82
2019-04-04T21:58:07.215Z,69.89
2019-04-04T22:00:44.152Z,69.74
2019-04-04T22:03:15.332Z,69.83
2019-04-04T22:05:44.911Z,69.91
2019-04-04T22:08:14.496Z,69.85
2019-04-04T22:10:44.024Z,69.92
2019-04-04T22:13:13.568Z,69.92
2019-04-04T22:15:43.546Z,70.26
2019-04-04T22:18:13.083Z,70.16
2019-04-04T22:20:42.718Z,70.11
2019-04-04T22:23:12.258Z,69.95
2019-04-04T22:25:41.780Z,70.20
2019-04-04T22:28:11.491Z,70.27
2019-04-04T22:30:41.980Z,69.96
2019-04-04T22:33:11.514Z,70.30
2019-04-04T22:35:41.056Z,70.40
2019-04-04T22:38:10.590Z,70.57
2019-04-04T22:40:40.096Z,70.67
2019-04-04T22:43:09.615Z,70.79
2019-04-04T22:45:39.118Z,70.79
2019-04-04T22:48:08.628Z,70.39
2019-04-04T22:50:38.139Z,70.09
2019-04-04T22:53:07.678Z,70.25
2019-04-04T22:55:37.247Z,70.65
2019-04-04T22:58:06.769Z,70.53
2019-04-04T23:00:36.389Z,70.54
2019-04-04T23:03:07.057Z,70.70
2019-04-04T23:05:36.584Z,70.25
2019-04-04T23:08:07.606Z,70.16
2019-04-04T23:10:37.354Z,69.58
2019-04-04T23:13:06.885Z,70.00
2019-04-04T23:15:36.414Z,70.16
2019-04-04T23:18:06.013Z,70.11
2019-04-04T23:20:35.549Z,70.35
2019-04-04T23:23:06.169Z,70.35
2019-04-04T23:25:35.742Z,69.84
2019-04-04T23:28:05.283Z,70.02
2019-04-04T23:30:35.236Z,69.85
2019-04-04T23:33:04.984Z,69.64
2019-04-04T23:35:34.508Z,69.79
2019-04-04T23:38:04.027Z,70.09
2019-04-04T23:40:33.552Z,70.09
2019-04-04T23:43:03.083Z,70.11
2019-04-04T23:45:32.582Z,69.80
2019-04-04T23:48:02.238Z,70.08
2019-04-04T23:50:31.748Z,70.08
2019-04-04T23:53:01.292Z,70.46
2019-04-04T23:55:30.808Z,70.43
2019-04-04T23:58:00.329Z,70.29
